Time;durP1;ratioP1;P1;durP2;ratioP2;P2;SDS_P1;SDS_P2;PMS_P1;PMS_P2;Temp;Humidity;BMP_temperature;BMP_pressure;BME280_temperature;BME280_humidity;BME280_pressure;Samples;Min_cycle;Max_cycle;Signal;HPM_P1;HPM_P2
2022/03/18 00:02:08;;;;;;;6.25;4.68;;;22.60;31.90;;;;;;4918725;29;20480;-72
2022/03/18 00:04:34;;;;;;;5.57;4.85;;;22.60;32.10;;;;;;4918224;29;20790;-72
2022/03/18 00:07:00;;;;;;;5.28;4.53;;;22.70;31.90;;;;;;4918202;29;20397;-72
2022/03/18 00:09:26;;;;;;;5.87;4.50;;;22.70;31.80;;;;;;4918427;29;20461;-72
2022/03/18 00:11:52;;;;;;;5.28;4.50;;;22.60;31.70;;;;;;4918324;29;20900;-73
2022/03/18 00:14:19;;;;;;;5.57;4.68;;;22.60;31.80;;;;;;4918491;29;20464;-73
2022/03/18 00:16:46;;;;;;;5.95;4.50;;;22.60;31.80;;;;;;4918263;29;20393;-73
2022/03/18 00:19:11;;;;;;;6.20;4.90;;;22.60;31.90;;;;;;4917799;29;20436;-73
2022/03/18 00:21:37;;;;;;;5.43;4.87;;;22.60;31.90;;;;;;4902171;29;20409;-73
2022/03/18 00:24:04;;;;;;;5.68;4.68;;;22.60;31.80;;;;;;4918221;29;20876;-72
2022/03/18 00:26:30;;;;;;;5.25;4.30;;;22.60;31.90;;;;;;4918174;29;20460;-72
2022/03/18 00:28:56;;;;;;;5.72;4.65;;;22.60;31.70;;;;;;4885308;29;20401;-72
2022/03/18 00:31:22;;;;;;;6.43;4.60;;;22.60;31.80;;;;;;4900737;29;20485;-73
2022/03/18 00:33:48;;;;;;;5.22;4.40;;;22.60;31.80;;;;;;4900637;29;20453;-73
2022/03/18 00:36:14;;;;;;;5.68;4.60;;;22.60;31.90;;;;;;4900934;29;20401;-73
2022/03/18 00:38:39;;;;;;;5.20;4.27;;;22.60;31.70;;;;;;4917713;29;20772;-72
2022/03/18 00:41:06;;;;;;;5.68;4.60;;;22.50;31.70;;;;;;4900428;29;20425;-72
2022/03/18 00:43:32;;;;;;;5.20;4.45;;;22.90;31.90;;;;;;4900611;29;20401;-72
2022/03/18 00:45:58;;;;;;;5.47;4.40;;;22.60;31.70;;;;;;4900567;29;20405;-72
2022/03/18 00:53:52;;;;;;;5.70;4.60;;;22.60;31.80;;;;;;4917396;29;20755;-72
2022/03/18 00:56:18;;;;;;;4.82;4.10;;;22.60;31.60;;;;;;4917681;29;20409;-72
2022/03/18 00:58:44;;;;;;;5.80;4.20;;;22.60;31.70;;;;;;4917431;29;20509;-72
2022/03/18 01:01:10;;;;;;;5.20;4.53;;;22.60;31.70;;;;;;4915891;29;20821;-73
2022/03/18 01:03:36;;;;;;;5.32;4.45;;;22.60;31.70;;;;;;4917356;29;20884;-72
2022/03/18 01:06:02;;;;;;;4.88;4.30;;;22.50;31.70;;;;;;4917277;29;20417;-72
2022/03/18 01:08:28;;;;;;;5.57;4.50;;;22.50;31.70;;;;;;4917236;29;20828;-72
2022/03/18 01:10:54;;;;;;;5.60;4.40;;;22.50;31.70;;;;;;4917972;29;20397;-73
2022/03/18 01:13:21;;;;;;;5.20;4.40;;;22.50;31.70;;;;;;4916738;29;21125;-72
2022/03/18 01:15:46;;;;;;;5.38;4.28;;;22.50;31.80;;;;;;4916962;29;20501;-72
2022/03/18 01:18:12;;;;;;;6.13;4.50;;;22.50;31.90;;;;;;4917128;29;20936;-73
2022/03/18 01:20:38;;;;;;;6.10;4.20;;;22.50;31.80;;;;;;4916876;29;20927;-73
2022/03/18 01:23:06;;;;;;;5.90;4.40;;;22.50;31.70;;;;;;4916932;29;20405;-72
2022/03/18 01:25:33;;;;;;;5.13;4.40;;;22.50;31.70;;;;;;4916654;29;20412;-72
2022/03/18 01:28:01;;;;;;;5.75;4.35;;;22.50;31.90;;;;;;4916832;29;20397;-72
2022/03/18 01:30:30;;;;;;;5.10;4.30;;;22.50;31.80;;;;;;4917597;29;20826;-72
2022/03/18 01:32:56;;;;;;;5.32;4.03;;;22.50;31.90;;;;;;4916658;29;20405;-72
2022/03/18 01:35:22;;;;;;;4.85;3.90;;;22.50;31.90;;;;;;4899237;29;20837;-72
2022/03/18 01:37:48;;;;;;;4.97;4.13;;;22.50;31.80;;;;;;4917180;29;20431;-72
2022/03/18 01:40:14;;;;;;;5.10;4.13;;;22.50;31.90;;;;;;4916696;29;20425;-72
2022/03/18 01:42:40;;;;;;;5.00;4.27;;;22.50;31.90;;;;;;4916673;29;20813;-72
2022/03/18 01:45:07;;;;;;;4.95;4.30;;;22.50;31.90;;;;;;4916358;29;20484;-72
2022/03/18 01:47:33;;;;;;;5.03;4.32;;;22.50;31.80;;;;;;4899296;29;20944;-72
2022/03/18 01:49:59;;;;;;;4.80;4.07;;;22.50;31.70;;;;;;4916391;29;20405;-72
2022/03/18 01:52:25;;;;;;;5.50;4.10;;;22.50;31.80;;;;;;4916688;29;20484;-73
2022/03/18 01:54:52;;;;;;;4.93;3.97;;;22.50;31.80;;;;;;4916593;29;20404;-72
2022/03/18 01:57:23;;;;;;;4.50;3.80;;;22.50;31.90;;;;;;4915898;29;20796;-72
2022/03/18 01:59:50;;;;;;;4.32;3.80;;;22.50;32.50;;;;;;4916295;29;20473;-72
2022/03/18 02:02:16;;;;;;;5.00;3.83;;;22.50;31.80;;;;;;4916289;29;20398;-73
2022/03/18 02:04:43;;;;;;;4.53;4.07;;;22.50;31.80;;;;;;4916320;29;20454;-72
2022/03/18 02:07:10;;;;;;;4.55;4.00;;;22.50;31.70;;;;;;4916023;29;20759;-73
2022/03/18 02:09:36;;;;;;;4.45;3.85;;;22.50;31.70;;;;;;4915966;29;20408;-73
2022/03/18 02:12:03;;;;;;;4.15;3.75;;;22.50;31.70;;;;;;4916075;29;20741;-72
2022/03/18 02:14:31;;;;;;;4.50;3.95;;;22.50;31.70;;;;;;4916763;29;20409;-73
2022/03/18 02:16:56;;;;;;;5.00;4.30;;;22.50;31.70;;;;;;4916549;29;20501;-73
2022/03/18 02:19:22;;;;;;;4.57;3.95;;;22.40;31.70;;;;;;4898943;29;20433;-72
2022/03/18 02:21:51;;;;;;;4.57;4.13;;;22.40;31.70;;;;;;4899269;29;20419;-72
2022/03/18 02:24:17;;;;;;;5.07;3.75;;;22.40;31.70;;;;;;4915917;29;20409;-72
2022/03/18 02:26:47;;;;;;;4.75;3.83;;;22.40;31.70;;;;;;4899242;29;20983;-72
2022/03/18 02:29:13;;;;;;;4.88;3.80;;;22.40;31.70;;;;;;4915872;29;20420;-72
2022/03/18 02:31:39;;;;;;;4.90;3.90;;;22.40;31.70;;;;;;4917376;29;20437;-72
2022/03/18 02:34:05;;;;;;;4.50;3.70;;;22.40;31.70;;;;;;4915740;29;20435;-72
2022/03/18 02:36:30;;;;;;;4.60;3.63;;;22.40;31.70;;;;;;4915883;29;20389;-72
2022/03/18 02:38:56;;;;;;;4.50;3.65;;;22.50;31.70;;;;;;4915458;29;20417;-72
2022/03/18 02:41:22;;;;;;;4.73;3.73;;;22.50;31.70;;;;;;4915228;29;20445;-72
2022/03/18 02:43:47;;;;;;;4.60;3.78;;;22.40;31.60;;;;;;4915406;29;20880;-72
2022/03/18 02:46:15;;;;;;;3.97;3.33;;;22.40;31.70;;;;;;4915603;29;20416;-72
2022/03/18 02:48:41;;;;;;;4.50;3.70;;;22.40;31.70;;;;;;4915488;29;20385;-72
2022/03/18 02:51:07;;;;;;;4.07;3.58;;;22.40;31.70;;;;;;4915294;29;20407;-73
2022/03/18 02:53:33;;;;;;;4.97;3.85;;;22.40;31.60;;;;;;4915243;29;20401;-72
2022/03/18 02:55:59;;;;;;;4.13;3.60;;;22.40;31.70;;;;;;4915249;29;20497;-72
2022/03/18 02:58:25;;;;;;;4.00;3.50;;;22.40;31.70;;;;;;4915289;29;20392;-72
2022/03/18 03:00:51;;;;;;;4.32;3.83;;;22.40;31.70;;;;;;4915342;29;20445;-72
2022/03/18 03:03:17;;;;;;;4.60;3.63;;;22.40;31.70;;;;;;4914803;29;20786;-72
2022/03/18 03:08:28;;;;;;;4.68;3.53;;;22.40;31.70;;;;;;4915548;29;21008;-73
2022/03/18 03:10:54;;;;;;;4.97;3.60;;;22.40;31.70;;;;;;4915643;29;20418;-73
2022/03/18 03:13:20;;;;;;;4.13;3.73;;;22.40;31.60;;;;;;4914687;29;20768;-72
2022/03/18 03:15:45;;;;;;;4.80;3.63;;;22.40;31.70;;;;;;4915006;29;20490;-72
2022/03/18 03:18:11;;;;;;;4.40;3.50;;;22.40;31.70;;;;;;4915301;29;20404;-73
2022/03/18 03:20:37;;;;;;;4.65;3.50;;;22.40;31.70;;;;;;4915302;29;20436;-72
2022/03/18 03:23:03;;;;;;;4.03;3.63;;;22.40;31.70;;;;;;4915724;29;20397;-72
2022/03/18 03:25:28;;;;;;;3.70;3.25;;;22.40;31.60;;;;;;4918922;29;20429;-72
2022/03/18 03:27:54;;;;;;;4.00;3.60;;;22.40;31.60;;;;;;4919076;29;20822;-72
2022/03/18 03:30:21;;;;;;;3.90;3.28;;;22.40;31.60;;;;;;4919226;29;20883;-73
2022/03/18 03:32:46;;;;;;;5.15;3.67;;;22.40;31.50;;;;;;4918834;29;20410;-72
2022/03/18 03:35:14;;;;;;;4.28;3.47;;;22.40;31.60;;;;;;4918574;29;20472;-72
2022/03/18 03:37:40;;;;;;;4.13;3.30;;;22.40;31.50;;;;;;4918609;29;20398;-72
2022/03/18 03:40:06;;;;;;;4.07;3.65;;;22.40;31.60;;;;;;4918749;29;20437;-72
2022/03/18 03:42:32;;;;;;;4.75;3.80;;;22.30;31.60;;;;;;4901705;29;20401;-71
2022/03/18 03:44:58;;;;;;;4.07;3.40;;;22.30;31.60;;;;;;4918725;29;20438;-72
2022/03/18 03:47:23;;;;;;;4.03;3.63;;;22.30;31.60;;;;;;4918422;29;20400;-72
2022/03/18 03:49:49;;;;;;;4.20;3.80;;;22.30;31.60;;;;;;4901782;29;20903;-73
2022/03/18 03:52:18;;;;;;;4.03;3.63;;;22.30;31.70;;;;;;4918704;29;20907;-73
2022/03/18 03:54:43;;;;;;;4.10;3.63;;;22.30;31.70;;;;;;4902349;29;20405;-73
2022/03/18 03:57:09;;;;;;;3.70;3.40;;;22.30;31.70;;;;;;4918890;29;20477;-73
2022/03/18 03:59:35;;;;;;;3.88;3.35;;;22.30;31.70;;;;;;4901507;29;20432;-72
2022/03/18 04:02:03;;;;;;;3.83;3.28;;;22.30;31.70;;;;;;4918419;29;20456;-73
2022/03/18 04:04:29;;;;;;;5.00;3.90;;;22.30;31.70;;;;;;4901372;29;20904;-73
2022/03/18 04:06:55;;;;;;;4.75;3.70;;;22.30;31.70;;;;;;4901165;29;20808;-72
2022/03/18 04:09:21;;;;;;;3.63;3.28;;;22.30;32.30;;;;;;4901034;29;20393;-72
2022/03/18 04:11:46;;;;;;;4.70;3.50;;;22.30;32.20;;;;;;4917977;29;20768;-72
2022/03/18 04:14:12;;;;;;;4.90;3.42;;;22.30;32.80;;;;;;4901654;29;20473;-71
2022/03/18 04:16:38;;;;;;;6.37;3.70;;;22.40;32.60;;;;;;4901860;29;20397;-71
2022/03/18 04:19:04;;;;;;;6.47;4.47;;;22.40;32.00;;;;;;4901035;29;20421;-71
2022/03/18 04:21:30;;;;;;;5.15;4.15;;;22.40;32.60;;;;;;4900735;29;20425;-71
2022/03/18 04:23:55;;;;;;;5.55;4.20;;;22.30;32.90;;;;;;4918863;29;20931;-72
2022/03/18 04:26:21;;;;;;;6.47;4.25;;;22.20;33.00;;;;;;4918104;29;20469;-72
2022/03/18 04:28:46;;;;;;;4.83;4.00;;;22.20;33.50;;;;;;4900920;29;20421;-71
2022/03/18 04:31:12;;;;;;;4.97;3.88;;;22.10;34.10;;;;;;4918458;29;20409;-71
2022/03/18 04:33:38;;;;;;;5.32;3.75;;;22.20;33.60;;;;;;4900562;29;20416;-72
2022/03/18 04:36:04;;;;;;;5.13;3.53;;;22.20;34.80;;;;;;4917713;29;20880;-72
2022/03/18 04:38:30;;;;;;;5.70;3.72;;;22.20;35.00;;;;;;4917851;29;20488;-71
2022/03/18 04:40:56;;;;;;;4.97;3.63;;;22.30;35.50;;;;;;4917992;29;20493;-72
2022/03/18 04:43:21;;;;;;;6.50;3.90;;;22.30;35.20;;;;;;4917337;29;20982;-72
2022/03/18 04:45:47;;;;;;;5.22;3.83;;;22.40;34.20;;;;;;4917566;29;20405;-72
2022/03/18 04:48:13;;;;;;;5.93;3.67;;;22.40;35.20;;;;;;4917560;29;20481;-72
2022/03/18 04:50:38;;;;;;;7.50;3.70;;;22.50;35.80;;;;;;4917417;29;20406;-73
2022/03/18 04:53:04;;;;;;;5.90;3.63;;;22.50;35.20;;;;;;4936634;29;20396;-72
2022/03/18 04:55:30;;;;;;;5.80;3.88;;;22.60;35.00;;;;;;4937045;29;20439;-72
2022/03/18 04:57:56;;;;;;;6.35;3.70;;;22.60;34.80;;;;;;4932862;29;20911;-72
2022/03/18 05:00:24;;;;;;;7.40;4.00;;;22.70;34.60;;;;;;4918986;29;20437;-72
2022/03/18 05:02:51;;;;;;;5.80;3.50;;;22.70;34.50;;;;;;4918753;29;20485;-72
2022/03/18 05:05:19;;;;;;;8.93;3.72;;;22.70;34.20;;;;;;4917706;29;20449;-72
2022/03/18 05:07:49;;;;;;;9.77;3.47;;;22.70;34.20;;;;;;4917735;29;20397;-72
2022/03/18 05:10:15;;;;;;;5.97;3.60;;;22.70;34.20;;;;;;4917673;29;20883;-72
2022/03/18 05:12:41;;;;;;;3.95;3.45;;;22.70;34.10;;;;;;4917279;29;20440;-73
2022/03/18 05:15:08;;;;;;;7.53;3.75;;;22.60;33.70;;;;;;4917046;29;20458;-73
2022/03/18 05:17:35;;;;;;;5.65;3.50;;;22.60;33.60;;;;;;4917026;29;20472;-72
2022/03/18 05:20:01;;;;;;;4.57;3.10;;;22.60;33.70;;;;;;4917686;29;20429;-72
2022/03/18 05:22:26;;;;;;;4.82;3.63;;;22.60;33.40;;;;;;4915611;29;20398;-72
2022/03/18 05:24:52;;;;;;;6.55;3.72;;;22.60;33.10;;;;;;4916081;29;20420;-72
2022/03/18 05:27:19;;;;;;;5.00;3.40;;;22.60;33.50;;;;;;4916609;29;20401;-72
2022/03/18 05:29:44;;;;;;;5.55;3.40;;;22.50;33.20;;;;;;4915565;29;20553;-71
2022/03/18 05:32:11;;;;;;;6.27;4.00;;;22.50;33.10;;;;;;4916395;29;20480;-73
2022/03/18 05:34:37;;;;;;;5.68;3.70;;;22.60;33.60;;;;;;4916140;29;20428;-73
2022/03/18 05:37:05;;;;;;;8.20;3.60;;;22.60;34.20;;;;;;4916032;29;20405;-72
2022/03/18 05:39:32;;;;;;;9.60;4.20;;;22.70;34.70;;;;;;4915834;29;20465;-73
2022/03/18 05:41:58;;;;;;;7.50;3.60;;;22.80;35.10;;;;;;4917887;29;20485;-72
2022/03/18 05:44:24;;;;;;;6.95;3.83;;;22.90;35.70;;;;;;4914974;29;20548;-71
2022/03/18 05:46:51;;;;;;;6.60;3.70;;;22.90;35.40;;;;;;4915383;29;20393;-71
2022/03/18 05:49:20;;;;;;;7.93;3.47;;;22.90;35.10;;;;;;4915878;29;20888;-71
2022/03/18 05:51:46;;;;;;;7.32;3.72;;;22.90;35.00;;;;;;4915879;29;20450;-70
2022/03/18 05:54:12;;;;;;;7.35;3.45;;;22.90;35.00;;;;;;4914943;29;20919;-71
2022/03/18 05:56:53;;;;;;;7.85;3.60;;;22.90;35.00;;;;;;4916654;29;20397;-73
2022/03/18 05:59:26;;;;;;;5.65;3.65;;;22.90;35.00;;;;;;4916145;29;20434;-71
2022/03/18 06:01:53;;;;;;;6.47;3.33;;;22.90;34.80;;;;;;4916347;29;20393;-70
2022/03/18 06:04:19;;;;;;;7.43;3.50;;;22.90;34.80;;;;;;4916464;29;20445;-73
2022/03/18 06:06:47;;;;;;;5.75;3.33;;;22.90;34.60;;;;;;4918313;29;20484;-71
2022/03/18 06:11:58;;;;;;;5.65;3.30;;;22.80;33.90;;;;;;4910855;29;20405;-71
2022/03/18 06:14:26;;;;;;;6.20;3.30;;;22.80;33.60;;;;;;4915851;29;20455;-71
2022/03/18 06:16:57;;;;;;;6.13;3.60;;;22.70;33.20;;;;;;4925413;29;20405;-71
2022/03/18 06:19:26;;;;;;;5.35;3.30;;;22.70;34.40;;;;;;4921417;29;20409;-71
2022/03/18 06:21:52;;;;;;;6.47;3.53;;;22.80;34.80;;;;;;4921180;29;20567;-71
2022/03/18 06:24:21;;;;;;;6.30;3.60;;;22.80;34.80;;;;;;4925822;29;20450;-70
2022/03/18 06:26:51;;;;;;;5.95;3.45;;;22.80;34.70;;;;;;4922162;29;20397;-71
2022/03/18 06:29:19;;;;;;;6.05;3.53;;;22.80;34.50;;;;;;4922680;29;20401;-71
2022/03/18 06:31:45;;;;;;;4.22;3.30;;;22.80;34.30;;;;;;4922753;29;20864;-71
2022/03/18 06:34:11;;;;;;;5.73;3.40;;;22.80;34.30;;;;;;4927377;29;20400;-70
2022/03/18 06:36:38;;;;;;;7.43;3.40;;;22.80;34.70;;;;;;4925096;29;20401;-71
2022/03/18 06:39:04;;;;;;;5.00;3.50;;;22.80;34.10;;;;;;4920813;29;20784;-71
2022/03/18 06:41:30;;;;;;;5.80;3.70;;;22.80;35.00;;;;;;4908750;29;20524;-71
2022/03/18 06:43:57;;;;;;;6.53;3.70;;;22.80;34.20;;;;;;4898316;29;20537;-71
2022/03/18 06:46:23;;;;;;;7.03;3.65;;;22.80;34.10;;;;;;4899496;29;20908;-71
2022/03/18 06:48:48;;;;;;;5.03;3.25;;;22.80;33.50;;;;;;4913851;29;20409;-71
2022/03/18 06:51:14;;;;;;;4.78;3.25;;;22.70;33.10;;;;;;4915409;29;20405;-71
2022/03/18 06:53:44;;;;;;;5.00;3.30;;;22.70;33.00;;;;;;4914488;29;20468;-71
2022/03/18 06:56:12;;;;;;;6.13;3.17;;;22.70;32.80;;;;;;4915635;29;20906;-71
2022/03/18 06:58:38;;;;;;;5.68;3.15;;;22.70;32.80;;;;;;4903551;29;21168;-71
2022/03/18 07:01:04;;;;;;;4.00;3.17;;;22.70;32.80;;;;;;4913867;29;20911;-71
2022/03/18 07:03:30;;;;;;;4.00;3.00;;;22.70;32.60;;;;;;4913309;29;20401;-71
2022/03/18 07:05:56;;;;;;;4.10;3.20;;;22.70;32.60;;;;;;4915488;29;20760;-71
2022/03/18 07:08:21;;;;;;;5.32;3.60;;;22.70;32.50;;;;;;4914462;29;20409;-73
2022/03/18 07:10:48;;;;;;;4.38;3.03;;;22.70;32.90;;;;;;4914699;29;20488;-71
2022/03/18 07:13:15;;;;;;;6.25;3.67;;;22.70;32.80;;;;;;4914260;29;20412;-70
2022/03/18 07:15:41;;;;;;;5.30;3.78;;;22.60;32.40;;;;;;4914534;29;20460;-71
2022/03/18 07:18:06;;;;;;;7.20;4.30;;;22.60;32.30;;;;;;4913688;29;20823;-71
2022/03/18 07:20:36;;;;;;;8.80;4.35;;;22.60;32.10;;;;;;4913913;29;20436;-70
2022/03/18 07:23:09;;;;;;;7.35;4.60;;;22.60;32.00;;;;;;4914946;29;20416;-70
2022/03/18 07:25:39;;;;;;;6.55;4.35;;;22.60;32.00;;;;;;4914285;29;20545;-71
2022/03/18 07:28:08;;;;;;;7.68;4.85;;;22.50;31.80;;;;;;4914652;29;20800;-70
2022/03/18 07:30:34;;;;;;;6.30;4.40;;;22.50;31.70;;;;;;4914330;29;20492;-71
2022/03/18 07:33:00;;;;;;;5.82;4.35;;;22.50;31.70;;;;;;4914433;29;20397;-71
2022/03/18 07:35:26;;;;;;;9.07;4.73;;;22.50;32.20;;;;;;4914525;29;20401;-71
2022/03/18 07:37:52;;;;;;;8.13;4.47;;;22.60;31.70;;;;;;4916237;29;20480;-69
2022/03/18 07:40:19;;;;;;;8.03;4.57;;;22.60;31.90;;;;;;4914762;29;20468;-70
2022/03/18 07:42:50;;;;;;;6.67;4.80;;;22.60;31.80;;;;;;4914540;29;20440;-71
2022/03/18 07:45:30;;;;;;;7.25;5.05;;;22.50;31.60;;;;;;4914547;29;20405;-71
2022/03/18 07:47:59;;;;;;;7.28;4.82;;;22.60;31.60;;;;;;4914431;29;20492;-70
2022/03/18 07:50:27;;;;;;;8.40;4.90;;;22.50;31.50;;;;;;4915460;29;20908;-71
2022/03/18 07:52:58;;;;;;;7.22;4.85;;;22.50;31.50;;;;;;4898232;29;20455;-72
2022/03/18 07:55:27;;;;;;;7.15;5.03;;;22.60;31.50;;;;;;4914345;29;20408;-72
2022/03/18 07:57:54;;;;;;;6.47;4.88;;;22.50;31.40;;;;;;4897461;29;20413;-71
2022/03/18 08:00:20;;;;;;;6.78;5.15;;;22.60;31.40;;;;;;4897516;29;20440;-71
2022/03/18 08:02:48;;;;;;;6.60;4.70;;;22.50;31.30;;;;;;4914375;29;20947;-72
2022/03/18 08:05:15;;;;;;;8.18;5.28;;;22.60;31.40;;;;;;4914434;29;20405;-71
2022/03/18 08:07:41;;;;;;;6.78;5.15;;;22.50;31.20;;;;;;4913788;29;20401;-72
2022/03/18 08:10:09;;;;;;;7.45;4.80;;;22.50;31.20;;;;;;4916754;29;20401;-71
2022/03/18 08:12:35;;;;;;;7.55;5.03;;;22.60;31.20;;;;;;4918114;29;20389;-71
2022/03/18 08:15:06;;;;;;;6.60;5.00;;;22.60;31.20;;;;;;4917992;29;20461;-70
2022/03/18 08:17:31;;;;;;;7.00;5.07;;;22.60;31.20;;;;;;4917896;29;20885;-71
2022/03/18 08:19:57;;;;;;;6.90;5.10;;;22.50;31.10;;;;;;4917328;29;20440;-71
2022/03/18 08:22:25;;;;;;;6.50;5.30;;;22.60;31.20;;;;;;4917421;29;20397;-71
2022/03/18 08:24:52;;;;;;;6.25;5.18;;;22.50;31.10;;;;;;4917513;29;20412;-71
2022/03/18 08:27:18;;;;;;;6.28;5.03;;;22.60;31.10;;;;;;4917077;29;20401;-70
2022/03/18 08:29:45;;;;;;;10.13;5.30;;;22.60;31.10;;;;;;4904591;29;20412;-70
2022/03/18 08:32:21;;;;;;;10.93;5.57;;;22.60;31.20;;;;;;4927143;29;20391;-70
2022/03/18 08:34:47;;;;;;;9.63;5.00;;;22.60;31.60;;;;;;4923833;29;20494;-71
2022/03/18 08:37:12;;;;;;;8.95;5.22;;;22.60;31.50;;;;;;4925419;29;20900;-71
2022/03/18 08:39:41;;;;;;;8.83;5.20;;;22.60;31.50;;;;;;4922431;29;20425;-70
2022/03/18 08:42:07;;;;;;;10.15;5.45;;;22.70;31.50;;;;;;4921607;29;20441;-72
2022/03/18 08:44:33;;;;;;;9.93;5.70;;;22.70;31.30;;;;;;4922586;29;20416;-70
2022/03/18 08:46:59;;;;;;;9.98;5.32;;;22.70;31.90;;;;;;4925597;29;20758;-71
2022/03/18 08:49:25;;;;;;;8.65;5.28;;;22.70;31.50;;;;;;4926443;29;20395;-70
2022/03/18 08:51:51;;;;;;;7.80;5.43;;;22.70;31.40;;;;;;4924421;29;20746;-70
2022/03/18 08:54:21;;;;;;;6.90;5.20;;;22.70;31.30;;;;;;4920849;29;20412;-71
2022/03/18 08:56:47;;;;;;;7.47;5.35;;;22.70;31.20;;;;;;4900364;29;20408;-70
2022/03/18 08:59:13;;;;;;;9.93;5.43;;;22.70;31.20;;;;;;4917060;29;20425;-71
2022/03/18 09:01:39;;;;;;;7.70;5.18;;;22.70;31.10;;;;;;4916497;29;20449;-71
2022/03/18 09:04:05;;;;;;;8.80;5.30;;;22.70;31.10;;;;;;4916993;29;20416;-71
2022/03/18 09:06:31;;;;;;;8.27;5.28;;;22.70;31.60;;;;;;4916707;29;20401;-70
2022/03/18 09:09:02;;;;;;;8.00;5.60;;;22.70;31.00;;;;;;4916947;29;20884;-71
2022/03/18 09:11:28;;;;;;;8.60;6.13;;;22.80;31.00;;;;;;4916824;29;20492;-71
2022/03/18 09:13:54;;;;;;;6.97;5.68;;;22.80;30.90;;;;;;4916785;29;20983;-72
2022/03/18 09:16:20;;;;;;;7.55;5.63;;;22.80;30.90;;;;;;4916863;29;20488;-71
2022/03/18 09:18:46;;;;;;;7.15;5.75;;;22.80;30.80;;;;;;4899576;29;20413;-71
2022/03/18 09:21:13;;;;;;;6.80;5.23;;;22.80;30.80;;;;;;4915668;29;20424;-70
2022/03/18 09:23:39;;;;;;;7.53;5.30;;;22.80;30.80;;;;;;4917067;29;20437;-71
2022/03/18 09:26:04;;;;;;;7.23;5.67;;;22.80;30.80;;;;;;4918014;29;20920;-71
2022/03/18 09:28:31;;;;;;;7.32;5.32;;;22.80;31.10;;;;;;4899340;29;20413;-71
2022/03/18 09:30:57;;;;;;;6.28;4.95;;;22.80;30.70;;;;;;4916070;29;20767;-71
2022/03/18 09:33:23;;;;;;;6.35;5.40;;;22.80;30.70;;;;;;4916281;29;20460;-72
2022/03/18 09:35:48;;;;;;;7.95;5.82;;;22.80;30.70;;;;;;4916676;29;20729;-71
2022/03/18 09:38:14;;;;;;;6.90;5.43;;;22.90;30.70;;;;;;4916756;29;20451;-72
2022/03/18 09:40:41;;;;;;;6.45;5.53;;;22.80;30.60;;;;;;4915980;29;20939;-72
2022/03/18 09:43:09;;;;;;;6.15;5.32;;;22.80;30.70;;;;;;4916337;29;20401;-71
2022/03/18 09:45:37;;;;;;;7.45;5.63;;;22.80;30.60;;;;;;4916212;29;20409;-70
2022/03/18 09:48:06;;;;;;;6.03;5.35;;;22.80;30.60;;;;;;4916367;29;20405;-71
2022/03/18 09:50:33;;;;;;;6.50;5.38;;;22.90;30.70;;;;;;4898310;29;20394;-70
2022/03/18 09:52:59;;;;;;;6.53;5.30;;;22.80;30.60;;;;;;4898410;29;20412;-72
2022/03/18 09:55:25;;;;;;;7.30;5.40;;;22.80;30.60;;;;;;4899121;29;20429;-71
2022/03/18 09:57:53;;;;;;;6.83;5.33;;;22.80;30.60;;;;;;4898324;29;20405;-72
2022/03/18 10:00:19;;;;;;;6.30;5.30;;;22.80;30.60;;;;;;4898841;29;20440;-72
2022/03/18 10:02:44;;;;;;;6.97;5.60;;;22.80;30.60;;;;;;4901480;29;20399;-70
2022/03/18 10:05:15;;;;;;;6.30;5.20;;;22.80;30.70;;;;;;4910369;29;20413;-72
2022/03/18 10:07:53;;;;;;;7.10;5.60;;;22.80;30.70;;;;;;4900911;29;20409;-72
2022/03/18 10:10:20;;;;;;;6.72;5.38;;;22.90;30.60;;;;;;4921441;29;20476;-70
2022/03/18 10:12:48;;;;;;;6.45;5.40;;;22.90;30.50;;;;;;4905716;29;20399;-72
2022/03/18 10:15:24;;;;;;;6.45;5.22;;;22.90;30.50;;;;;;4909522;29;20422;-72
2022/03/18 10:17:58;;;;;;;6.78;5.55;;;22.90;30.50;;;;;;4916370;29;20420;-71
2022/03/18 10:20:34;;;;;;;6.40;5.43;;;22.90;30.60;;;;;;4933523;29;20438;-70
2022/03/18 10:23:19;;;;;;;6.88;5.75;;;22.80;31.10;;;;;;4930533;29;20402;-70
2022/03/18 10:25:51;;;;;;;6.18;5.55;;;22.90;30.50;;;;;;4919133;29;20402;-70
2022/03/18 10:28:43;;;;;;;6.82;5.90;;;22.90;30.50;;;;;;4919480;29;20404;-69
2022/03/18 10:31:18;;;;;;;6.55;5.70;;;22.90;30.50;;;;;;4907851;29;20439;-71
2022/03/18 10:39:30;;;;;;;9.20;6.90;;;22.90;30.50;;;;;;4925347;29;20421;-70
2022/03/18 10:42:00;;;;;;;7.07;6.10;;;22.80;30.50;;;;;;4925100;29;20408;-70
2022/03/18 10:44:51;;;;;;;7.10;5.80;;;22.80;30.50;;;;;;4920474;29;20889;-71
2022/03/18 10:47:32;;;;;;;7.28;6.35;;;22.80;30.50;;;;;;4915416;29;20506;-71
2022/03/18 10:50:10;;;;;;;7.93;6.03;;;22.90;30.60;;;;;;4916936;29;21057;-71
2022/03/18 10:52:48;;;;;;;8.40;5.90;;;22.90;30.60;;;;;;4916884;29;20922;-72
2022/03/18 10:55:21;;;;;;;7.63;6.30;;;22.90;30.60;;;;;;4917362;29;20488;-72
2022/03/18 10:57:50;;;;;;;8.20;6.28;;;22.90;30.50;;;;;;4916668;29;20494;-71
2022/03/18 11:00:17;;;;;;;8.05;6.13;;;22.90;30.50;;;;;;4917289;29;20463;-70
2022/03/18 11:02:47;;;;;;;8.05;6.13;;;22.90;30.50;;;;;;4917085;29;20404;-71
2022/03/18 11:05:14;;;;;;;7.20;6.10;;;23.00;30.50;;;;;;4925675;29;20405;-71
2022/03/18 11:07:43;;;;;;;7.73;6.30;;;22.90;30.50;;;;;;4897031;29;21303;-71
2022/03/18 11:12:57;;;;;;;8.60;6.03;;;23.00;30.50;;;;;;4923818;29;20387;-72
2022/03/18 11:15:26;;;;;;;7.17;6.00;;;23.00;30.50;;;;;;4919903;29;20409;-70
2022/03/18 11:17:55;;;;;;;7.90;6.07;;;23.00;30.50;;;;;;4914327;29;20408;-69
2022/03/18 11:20:24;;;;;;;6.95;6.20;;;23.10;30.60;;;;;;4907340;29;20455;-71
2022/03/18 11:22:50;;;;;;;6.53;5.83;;;23.00;30.60;;;;;;4908165;29;20482;-71
2022/03/18 11:25:17;;;;;;;7.00;6.07;;;23.00;30.50;;;;;;4924838;29;20488;-71
2022/03/18 11:27:45;;;;;;;6.73;6.00;;;23.00;30.50;;;;;;4905816;29;20501;-71
2022/03/18 11:30:31;;;;;;;7.55;6.03;;;23.00;30.50;;;;;;4906053;29;20402;-70
2022/03/18 11:33:14;;;;;;;6.85;5.93;;;23.00;30.50;;;;;;4923907;29;20391;-72
2022/03/18 11:35:49;;;;;;;6.95;6.20;;;23.00;31.00;;;;;;4921939;29;20554;-70
2022/03/18 11:38:47;;;;;;;7.22;5.88;;;23.00;30.40;;;;;;4906246;29;20399;-70
2022/03/18 11:41:12;;;;;;;7.87;6.00;;;23.00;30.40;;;;;;4924734;29;20461;-71
2022/03/18 11:43:44;;;;;;;7.65;6.25;;;23.00;30.40;;;;;;4922824;29;20397;-70
2022/03/18 11:46:13;;;;;;;7.00;5.60;;;23.00;30.40;;;;;;4910822;29;20411;-72
2022/03/18 11:48:51;;;;;;;6.63;5.55;;;23.00;30.40;;;;;;4927605;29;20882;-70
2022/03/18 11:51:29;;;;;;;6.60;5.87;;;23.00;30.40;;;;;;4908328;29;20923;-70
2022/03/18 11:54:16;;;;;;;7.05;6.20;;;23.00;30.40;;;;;;4909883;29;20389;-70
2022/03/18 11:56:53;;;;;;;7.07;6.10;;;23.00;30.40;;;;;;4924279;29;20434;-70
2022/03/18 11:59:25;;;;;;;6.50;5.80;;;23.00;30.40;;;;;;4907349;29;20432;-72
2022/03/18 12:02:14;;;;;;;7.22;6.03;;;23.00;30.40;;;;;;4912150;29;20404;-71
2022/03/18 12:04:47;;;;;;;6.97;5.88;;;23.00;30.40;;;;;;4912902;29;20422;-70
2022/03/18 12:07:18;;;;;;;7.05;6.18;;;23.00;30.30;;;;;;4910743;29;20816;-71
2022/03/18 12:10:01;;;;;;;7.00;6.30;;;23.10;30.40;;;;;;4911613;29;20416;-71
2022/03/18 12:12:27;;;;;;;6.85;6.15;;;23.10;30.40;;;;;;4910895;29;20400;-71
2022/03/18 12:14:54;;;;;;;6.70;5.65;;;23.10;30.40;;;;;;4929821;29;20447;-71
2022/03/18 12:17:24;;;;;;;7.63;6.20;;;23.10;30.40;;;;;;4926617;29;20766;-71
2022/03/18 12:19:52;;;;;;;6.43;5.78;;;23.10;30.40;;;;;;4909006;29;20486;-72
2022/03/18 12:22:20;;;;;;;6.65;5.95;;;23.10;30.40;;;;;;4925281;29;20958;-70
2022/03/18 12:24:53;;;;;;;7.38;6.00;;;23.10;30.90;;;;;;4929040;29;20941;-70
2022/03/18 12:27:21;;;;;;;8.68;6.70;;;23.30;31.40;;;;;;4906888;29;20409;-71
2022/03/18 12:29:48;;;;;;;10.23;6.68;;;23.40;31.40;;;;;;4926585;29;20399;-70
2022/03/18 12:32:15;;;;;;;8.18;6.50;;;23.50;31.20;;;;;;4906707;29;20397;-70
2022/03/18 12:34:51;;;;;;;8.68;6.63;;;23.60;31.30;;;;;;4910072;29;20403;-70
2022/03/18 12:37:21;;;;;;;9.33;6.80;;;23.70;31.30;;;;;;4921363;29;20911;-70
2022/03/18 12:39:48;;;;;;;7.97;6.10;;;23.80;31.70;;;;;;4925808;29;20838;-70
2022/03/18 12:42:14;;;;;;;7.47;6.03;;;23.80;31.40;;;;;;4927948;29;20400;-72
2022/03/18 12:44:46;;;;;;;7.53;6.13;;;23.80;31.50;;;;;;4912106;29;20407;-71
2022/03/18 12:47:12;;;;;;;7.75;6.53;;;23.80;31.40;;;;;;4909120;29;20433;-71
2022/03/18 12:49:39;;;;;;;7.63;5.93;;;23.90;31.60;;;;;;4908852;29;20979;-70
2022/03/18 12:52:10;;;;;;;7.75;6.20;;;23.90;32.10;;;;;;4909588;29;20524;-70
2022/03/18 12:54:36;;;;;;;10.32;6.20;;;23.90;31.90;;;;;;4910965;29;20405;-69
2022/03/18 12:57:02;;;;;;;8.40;5.90;;;24.00;32.40;;;;;;4910365;29;20924;-71
2022/03/18 12:59:28;;;;;;;8.13;6.05;;;24.40;32.70;;;;;;4910313;29;20502;-70
2022/03/18 13:01:56;;;;;;;8.50;5.73;;;24.20;32.60;;;;;;4925519;29;21206;-71
2022/03/18 13:04:22;;;;;;;9.07;6.20;;;24.30;32.30;;;;;;4924694;29;20405;-71
2022/03/18 13:06:58;;;;;;;7.70;5.80;;;24.30;32.30;;;;;;4920792;29;20401;-71
2022/03/18 13:09:24;;;;;;;7.72;5.78;;;24.40;32.70;;;;;;4907321;29;20914;-69